Time;durP1;ratioP1;P1;durP2;ratioP2;P2;SDS_P1;SDS_P2;PMS_P1;PMS_P2;Temp;Humidity;BMP_temperature;BMP_pressure;BME280_temperature;BME280_humidity;BME280_pressure;Samples;Min_cycle;Max_cycle;Signal;HPM_P1;HPM_P2
2022/03/09 16:58:42;;;;;;;42.80;13.10;;;20.10;70.20;;;;;;6187263;27;20795;-64
2022/03/09 17:01:42;;;;;;;45.92;12.60;;;20.60;66.40;;;;;;6161118;28;20050;-67
2022/03/09 17:04:43;;;;;;;50.83;14.40;;;20.90;65.60;;;;;;6197796;28;20065;-66
2022/03/09 17:07:44;;;;;;;45.63;14.00;;;20.80;64.30;;;;;;6194305;28;20034;-67
2022/03/09 17:10:44;;;;;;;53.45;16.15;;;20.70;64.10;;;;;;6194412;28;20027;-67
2022/03/09 17:13:45;;;;;;;61.08;29.15;;;20.70;63.90;;;;;;6194953;28;20428;-68
2022/03/09 17:16:46;;;;;;;70.72;40.05;;;20.60;64.00;;;;;;6194818;28;20412;-68
2022/03/09 17:19:47;;;;;;;78.78;45.10;;;20.50;64.40;;;;;;6175818;28;20027;-69
2022/03/09 17:22:48;;;;;;;90.13;40.63;;;20.60;64.30;;;;;;6170695;28;20031;-68
2022/03/09 17:25:48;;;;;;;81.72;43.47;;;20.60;64.40;;;;;;6185422;28;20473;-69
2022/03/09 17:28:49;;;;;;;77.07;46.45;;;20.50;64.50;;;;;;6170644;28;20841;-67
2022/03/09 17:31:49;;;;;;;75.97;45.75;;;20.60;64.50;;;;;;6184717;28;20019;-67
2022/03/09 17:34:50;;;;;;;74.20;47.42;;;20.60;64.40;;;;;;6170204;28;20142;-68
2022/03/09 17:37:51;;;;;;;78.30;46.83;;;20.60;64.40;;;;;;6170836;28;20046;-67
2022/03/09 17:40:54;;;;;;;81.78;51.47;;;20.60;64.40;;;;;;6185752;28;20402;-66
2022/03/09 17:43:56;;;;;;;88.38;53.60;;;20.60;64.50;;;;;;6179993;28;20029;-68
2022/03/09 17:46:56;;;;;;;;;;;20.60;64.70;;;;;;6196298;28;20045;-68
2022/03/09 17:49:57;;;;;;;98.55;61.28;;;20.60;64.70;;;;;;6194732;28;19910;-69
2022/03/09 17:52:58;;;;;;;100.15;58.88;;;20.60;64.50;;;;;;6195210;28;20075;-70
2022/03/09 17:55:58;;;;;;;88.65;56.75;;;20.50;64.80;;;;;;6210252;28;20499;-68
2022/03/09 17:59:01;;;;;;;94.88;59.33;;;20.50;64.40;;;;;;6194768;28;20142;-63
2022/03/09 18:02:02;;;;;;;105.95;57.88;;;20.50;65.00;;;;;;6195508;28;20027;-66
2022/03/09 18:05:02;;;;;;;91.18;56.78;;;20.60;65.00;;;;;;6194580;28;20046;-66
2022/03/09 18:08:03;;;;;;;84.65;53.40;;;20.60;64.90;;;;;;6165152;28;20491;-65
2022/03/09 18:11:04;;;;;;;103.22;56.08;;;20.60;64.90;;;;;;6154879;28;20067;-66
2022/03/09 18:14:05;;;;;;;59.95;38.95;;;20.60;64.90;;;;;;6155121;28;20032;-67
2022/03/09 18:17:06;;;;;;;61.43;39.40;;;17.40;54.60;;;;;;6080997;28;20145;-68
2022/03/09 18:20:08;;;;;;;67.55;39.67;;;;;;;;;;6164647;28;20031;-63
2022/03/09 18:23:08;;;;;;;56.20;39.00;;;18.50;71.80;;;;;;6127870;28;20046;-70
2022/03/09 18:26:09;;;;;;;65.28;38.60;;;19.90;89.40;;;;;;6168908;28;20046;-66
2022/03/09 18:29:15;;;;;;;59.85;40.90;;;20.10;64.50;;;;;;6214021;28;20029;-65
2022/03/09 18:32:19;;;;;;;60.20;37.50;;;20.20;63.70;;;;;;6157255;28;20508;-65
2022/03/09 18:35:29;;;;;;;87.10;37.72;;;20.30;63.20;;;;;;6159336;28;20043;-64
2022/03/09 18:38:36;;;;;;;84.32;40.35;;;20.40;62.90;;;;;;6178364;28;20477;-69
2022/03/09 18:41:37;;;;;;;70.70;37.78;;;20.30;62.80;;;;;;6178460;28;20039;-68
2022/03/09 18:44:38;;;;;;;68.38;35.72;;;20.40;62.80;;;;;;6178788;28;20027;-66
2022/03/09 18:47:39;;;;;;;65.55;32.88;;;20.50;62.50;;;;;;6177742;28;20488;-71
2022/03/09 18:50:42;;;;;;;76.90;34.00;;;20.50;62.40;;;;;;6177168;28;20030;-67
2022/03/09 18:53:43;;;;;;;61.40;28.75;;;20.50;62.30;;;;;;6178034;28;20045;-74
2022/03/09 18:56:43;;;;;;;61.08;26.63;;;20.40;62.30;;;;;;6158425;28;20055;-73
2022/03/09 18:59:44;;;;;;;52.47;26.35;;;20.40;62.40;;;;;;6177099;28;20039;-73
2022/03/09 19:02:45;;;;;;;47.40;23.55;;;20.40;62.40;;;;;;6177113;28;20027;-67
2022/03/09 19:05:48;;;;;;;58.90;22.35;;;20.40;62.30;;;;;;6177160;28;20039;-69
2022/03/09 19:08:49;;;;;;;46.85;20.52;;;20.40;62.30;;;;;;6175902;28;20050;-67
2022/03/09 19:11:52;;;;;;;56.33;21.45;;;20.30;62.30;;;;;;6176889;28;20106;-67
2022/03/09 19:14:54;;;;;;;49.00;18.80;;;20.30;62.40;;;;;;6176691;28;20030;-67
2022/03/09 19:17:55;;;;;;;45.30;19.23;;;20.20;62.50;;;;;;6176191;28;20046;-67
2022/03/09 19:20:55;;;;;;;41.53;18.58;;;20.20;62.60;;;;;;6175685;28;20385;-67
2022/03/09 19:23:56;;;;;;;48.47;18.75;;;20.20;62.60;;;;;;6176201;28;20104;-67
2022/03/09 19:26:57;;;;;;;34.40;17.10;;;20.10;62.60;;;;;;6176630;28;20075;-67
2022/03/09 19:30:01;;;;;;;39.13;17.27;;;20.10;62.60;;;;;;6176366;28;20480;-70
2022/03/09 19:33:01;;;;;;;37.15;18.13;;;20.10;62.60;;;;;;6176288;28;20110;-67
2022/03/09 19:36:02;;;;;;;35.83;16.45;;;20.10;62.50;;;;;;6175891;28;20142;-69
2022/03/09 19:39:03;;;;;;;40.60;16.00;;;20.10;62.50;;;;;;6126748;28;20504;-76
2022/03/09 19:42:04;;;;;;;38.72;16.85;;;20.30;63.60;;;;;;6175231;28;20424;-75
2022/03/09 19:45:05;;;;;;;31.40;15.50;;;20.20;63.70;;;;;;6174799;28;20476;-71
2022/03/09 19:48:06;;;;;;;38.53;15.93;;;20.10;64.00;;;;;;6172784;28;20113;-77
2022/03/09 19:51:10;;;;;;;46.85;15.65;;;20.20;64.60;;;;;;6164224;28;20019;-79
2022/03/09 19:54:14;;;;;;;57.75;16.63;;;20.20;65.00;;;;;;6147224;28;20026;-70
